Forside
METAR-TAF:

METAR-TAF

Lufthavne :

Jakutsk, Rusland

Breddekreds: 62-01N, længdekreds: 129-43E, højde: 103 m

Aktuelle vejr

Denne rapport blev lavet for 26 minutter siden, kl. 00:30 UTC
Vind 8 kt fra nord
Temperatur 17°C
Fugtighed 94%
Tryk 1003 hPa
Sigt: 5000 m
Brudte skyer i en højde af 2900 ft, Cumulonimbus.
tordenbyger, let regn

METAR: UEEE 180030Z 01004MPS 5000 -TSRA BKN029CB 17/16 Q1003 R23L/290155 NOSIG RMK QFE743

Tid: 09:56 (00:56 UTC)

Vejrudsigter

Denne rapport blev lavet for 1 time og 56 minutter siden, kl. 23:00 UTC
Foreløbig gælder fra 18 på 00 UTC til 19 på 06 UTC
Vind 6 kt fra sydvest med vindstød på up til 19 kt
Sigt: 5000 m
Spredte skyer i en højde af 2000 ft, Cumulonimbus.
Overskyet i en højde af 7000 ft
let regnbyger
Midlertidig
fra 08 på 00 UTC til 08 på 12 UTC
Vind 33 kt fra varierende retninger
Sigt: 1000 m
i en højde af 500 ft
tordenbyger, regn

TAF: UEEE 172300Z 1800/1906 22003G10MPS 5000 -SHRA SCT020CB OVC070 TEMPO 0800/0812 VRB17MPS 1000 TSRA VV005

Vejrobservationer og prognoser fra mere end 4000 lufthavne (METAR og TAF).

De gule og røde prikker repræsenterer de meteorologiske stationer.

Flyt musen over at se navnet på stationen.

Så klik over at se vejr observationer og prognoser.

At skifte det kort: Klik på de grønne knapper med et sort kors for at zoome ind; på den grønne knap med en bindestreg for at zoome ud; eller på de grønne pile for tilstødende kort.


METAR-TAF: